Time;durP1;ratioP1;P1;durP2;ratioP2;P2;SDS_P1;SDS_P2;PMS_P1;PMS_P2;Temp;Humidity;BMP_temperature;BMP_pressure;BME280_temperature;BME280_humidity;BME280_pressure;Samples;Min_cycle;Max_cycle;Signal;HPM_P1;HPM_P2
2022/06/11 00:01:10;;;;;;;2.10;1.10;;;21.30;66.90;;;;;;4429298;32;20077;-71
2022/06/11 00:03:36;;;;;;;1.45;0.90;;;21.30;67.00;;;;;;4429540;32;20078;-71
2022/06/11 00:06:03;;;;;;;2.20;0.90;;;21.30;67.00;;;;;;4429271;32;20412;-71
2022/06/11 00:08:29;;;;;;;3.03;1.10;;;21.30;67.00;;;;;;4429499;32;20180;-71
2022/06/11 00:10:55;;;;;;;3.55;1.25;;;21.30;67.00;;;;;;4428990;32;20082;-72
2022/06/11 00:13:22;;;;;;;3.00;1.15;;;21.30;66.90;;;;;;4415472;32;20071;-71
2022/06/11 00:15:52;;;;;;;2.25;0.80;;;21.30;66.90;;;;;;4415738;32;20237;-71
2022/06/11 00:18:20;;;;;;;5.30;0.93;;;21.30;66.90;;;;;;4429650;32;20082;-71
2022/06/11 00:20:46;;;;;;;3.25;1.05;;;21.30;66.90;;;;;;4431098;32;20070;-71
2022/06/11 00:23:12;;;;;;;2.17;0.93;;;21.30;66.90;;;;;;4432147;32;20141;-71
2022/06/11 00:25:39;;;;;;;3.15;1.35;;;21.30;66.90;;;;;;4431962;32;20086;-70
2022/06/11 00:28:06;;;;;;;3.70;1.20;;;21.20;66.80;;;;;;4431887;32;20221;-74
2022/06/11 00:30:33;;;;;;;2.28;1.00;;;21.20;66.90;;;;;;4432337;32;20063;-71
2022/06/11 00:32:59;;;;;;;2.83;1.35;;;21.30;67.10;;;;;;4431857;32;20097;-73
2022/06/11 00:35:27;;;;;;;2.03;0.90;;;21.30;67.00;;;;;;4431840;32;20157;-72
2022/06/11 00:37:53;;;;;;;1.65;0.93;;;21.30;67.00;;;;;;4432334;32;20118;-72
2022/06/11 00:40:23;;;;;;;6.07;1.40;;;21.30;66.90;;;;;;4431713;32;20097;-72
2022/06/11 00:42:49;;;;;;;3.13;1.00;;;21.30;66.90;;;;;;4431821;32;20089;-72
2022/06/11 00:45:50;;;;;;;3.35;1.00;;;21.20;66.90;;;;;;4431904;32;20071;-72
2022/06/11 00:48:31;;;;;;;1.23;0.98;;;21.30;66.80;;;;;;4369793;32;20102;-72
2022/06/11 00:50:59;;;;;;;3.00;1.10;;;21.30;66.90;;;;;;4425864;32;20082;-72
2022/06/11 00:54:03;;;;;;;1.92;0.82;;;21.20;66.80;;;;;;4418598;32;20093;-72
2022/06/11 00:56:35;;;;;;;2.78;1.08;;;21.30;66.80;;;;;;4422937;32;20216;-72
2022/06/11 00:59:04;;;;;;;3.47;0.90;;;21.20;66.70;;;;;;4432313;32;20222;-72
2022/06/11 01:01:31;;;;;;;1.80;0.90;;;21.20;66.80;;;;;;4431429;32;20097;-71
2022/06/11 01:03:59;;;;;;;2.13;0.90;;;21.20;66.80;;;;;;4431936;32;20093;-72
2022/06/11 01:06:34;;;;;;;2.45;0.90;;;21.20;66.80;;;;;;4431912;32;20201;-72
2022/06/11 01:09:09;;;;;;;3.53;0.90;;;21.20;66.70;;;;;;4431784;32;20097;-72
2022/06/11 01:12:07;;;;;;;1.77;0.90;;;21.20;66.70;;;;;;4431691;32;20086;-72
2022/06/11 01:14:48;;;;;;;1.17;0.68;;;21.20;66.60;;;;;;4431576;32;20110;-72
2022/06/11 01:17:20;;;;;;;2.15;0.90;;;21.20;66.60;;;;;;4431505;32;20253;-72
2022/06/11 01:20:08;;;;;;;4.20;1.02;;;21.20;66.70;;;;;;4431689;32;20169;-72
2022/06/11 01:23:08;;;;;;;2.28;1.10;;;21.20;66.60;;;;;;4431892;32;20082;-72
2022/06/11 01:25:49;;;;;;;1.98;0.70;;;21.20;66.60;;;;;;4406109;32;20096;-71
2022/06/11 01:28:18;;;;;;;1.80;0.95;;;21.20;66.70;;;;;;4431665;32;20164;-72
2022/06/11 01:31:04;;;;;;;1.85;0.80;;;21.20;66.70;;;;;;4430854;32;20074;-72
2022/06/11 01:34:04;;;;;;;3.17;1.30;;;21.20;66.60;;;;;;4431904;32;20093;-72
2022/06/11 01:36:43;;;;;;;3.17;1.20;;;21.20;66.60;;;;;;4431599;32;20081;-73
2022/06/11 01:39:38;;;;;;;2.05;0.80;;;21.20;66.60;;;;;;4431544;32;20177;-72
2022/06/11 01:42:39;;;;;;;2.58;0.90;;;21.20;66.60;;;;;;4430899;32;20173;-72
2022/06/11 01:45:37;;;;;;;2.13;0.82;;;21.20;66.50;;;;;;4431489;32;20085;-72
2022/06/11 01:48:06;;;;;;;1.10;0.80;;;21.20;66.60;;;;;;4417852;32;20228;-72
2022/06/11 01:50:37;;;;;;;1.35;0.60;;;21.20;66.60;;;;;;4417183;32;20122;-71
2022/06/11 01:53:30;;;;;;;3.42;0.82;;;21.20;66.60;;;;;;4430971;32;20118;-71
2022/06/11 01:56:10;;;;;;;1.73;0.80;;;21.20;66.50;;;;;;4431117;32;20236;-71
2022/06/11 01:58:39;;;;;;;1.90;0.75;;;21.20;66.60;;;;;;4430701;32;20145;-72
2022/06/11 02:01:27;;;;;;;1.20;0.80;;;21.20;66.60;;;;;;4430743;32;20078;-71
2022/06/11 02:04:20;;;;;;;3.10;0.77;;;21.20;66.50;;;;;;4431069;32;20067;-72
2022/06/11 02:07:22;;;;;;;2.97;1.08;;;21.20;66.50;;;;;;4430815;32;20090;-72
2022/06/11 02:10:00;;;;;;;1.73;0.75;;;21.20;66.50;;;;;;4430552;32;20075;-72
2022/06/11 02:13:09;;;;;;;1.73;0.70;;;21.10;66.50;;;;;;4430422;32;20090;-71
2022/06/11 02:15:53;;;;;;;1.60;0.65;;;21.20;66.50;;;;;;4430674;32;20098;-71
2022/06/11 02:18:23;;;;;;;1.23;0.65;;;21.10;66.40;;;;;;4430793;32;20161;-71
2022/06/11 02:20:57;;;;;;;1.73;0.80;;;21.10;66.50;;;;;;4430643;32;20094;-72
2022/06/11 02:23:29;;;;;;;1.80;0.80;;;21.10;66.40;;;;;;4429998;32;20260;-75
2022/06/11 02:26:02;;;;;;;1.55;0.75;;;21.10;66.50;;;;;;4430464;32;20082;-71
2022/06/11 02:28:32;;;;;;;1.33;0.63;;;21.10;66.40;;;;;;4430747;32;20232;-72
2022/06/11 02:31:04;;;;;;;2.70;0.90;;;21.10;66.40;;;;;;4430523;32;20258;-72
2022/06/11 02:33:33;;;;;;;1.90;0.80;;;21.10;66.40;;;;;;4430787;32;20125;-71
2022/06/11 02:36:12;;;;;;;2.97;0.70;;;21.10;66.40;;;;;;4430661;32;20078;-74
2022/06/11 02:38:39;;;;;;;1.42;0.85;;;21.10;66.40;;;;;;4430708;32;20074;-72
2022/06/11 02:41:10;;;;;;;1.27;0.90;;;21.10;66.40;;;;;;4430188;32;20083;-72
2022/06/11 02:43:37;;;;;;;2.00;0.80;;;21.10;66.40;;;;;;4430093;32;20085;-71
2022/06/11 02:46:40;;;;;;;1.67;0.70;;;21.10;66.40;;;;;;4430217;32;20195;-71
2022/06/11 02:48:51;;;;;;;1.90;0.70;;;21.10;66.40;;;;;;4430332;32;20510;-71
2022/06/11 02:51:24;;;;;;;1.30;0.77;;;21.10;66.40;;;;;;4430217;32;20220;-71
2022/06/11 02:53:50;;;;;;;1.67;0.80;;;21.10;66.40;;;;;;4430115;32;20082;-72
2022/06/11 02:56:16;;;;;;;3.33;1.08;;;21.10;66.30;;;;;;4430082;32;20090;-71
2022/06/11 02:58:42;;;;;;;1.13;0.70;;;21.10;66.30;;;;;;4429967;32;20094;-72
2022/06/11 03:01:09;;;;;;;1.25;0.63;;;21.10;66.30;;;;;;4429722;32;20168;-71
2022/06/11 03:03:36;;;;;;;1.85;0.65;;;21.10;66.40;;;;;;4430003;32;20609;-71
2022/06/11 03:06:04;;;;;;;1.08;0.70;;;21.10;66.30;;;;;;4429694;32;20126;-72
2022/06/11 03:08:31;;;;;;;1.67;0.60;;;21.10;66.30;;;;;;4430045;32;20128;-72
2022/06/11 03:10:57;;;;;;;0.90;0.68;;;21.10;66.30;;;;;;4429746;32;20163;-71
2022/06/11 03:13:27;;;;;;;1.67;0.90;;;21.10;66.30;;;;;;4429807;32;20133;-72
2022/06/11 03:15:54;;;;;;;2.15;0.90;;;21.10;66.30;;;;;;4429711;32;20122;-72
2022/06/11 03:18:22;;;;;;;2.20;0.90;;;21.10;66.20;;;;;;4429945;32;20084;-71
2022/06/11 03:20:48;;;;;;;1.63;0.70;;;21.10;66.30;;;;;;4429635;32;20082;-71
2022/06/11 03:23:14;;;;;;;1.90;0.90;;;21.10;66.30;;;;;;4429554;32;20102;-72
2022/06/11 03:25:40;;;;;;;1.23;0.70;;;21.10;66.30;;;;;;4429576;32;20500;-71
2022/06/11 03:28:19;;;;;;;1.35;0.65;;;21.10;66.30;;;;;;4415867;32;20622;-72
2022/06/11 03:30:46;;;;;;;1.70;0.70;;;21.10;66.30;;;;;;4429251;32;20089;-72
2022/06/11 03:33:12;;;;;;;1.77;0.70;;;21.10;67.10;;;;;;4429523;32;20092;-72
2022/06/11 03:35:38;;;;;;;1.20;0.80;;;21.00;66.20;;;;;;4429697;32;20098;-71
2022/06/11 03:38:07;;;;;;;1.50;0.65;;;21.00;66.10;;;;;;4415697;32;20452;-72
2022/06/11 03:40:33;;;;;;;0.80;0.65;;;21.10;66.30;;;;;;4429835;32;20588;-71
2022/06/11 03:43:00;;;;;;;1.42;0.90;;;21.00;66.10;;;;;;4429440;32;20082;-72
2022/06/11 03:45:26;;;;;;;2.22;0.70;;;21.00;66.10;;;;;;4429404;32;20078;-72
2022/06/11 03:47:52;;;;;;;1.17;0.70;;;21.00;66.10;;;;;;4429184;32;20074;-71
2022/06/11 03:50:27;;;;;;;0.93;0.73;;;21.00;66.10;;;;;;4429670;32;20073;-71
2022/06/11 03:52:54;;;;;;;1.45;0.73;;;21.00;66.10;;;;;;4429544;32;20220;-72
2022/06/11 03:55:22;;;;;;;1.50;0.77;;;21.00;66.10;;;;;;4432250;32;20095;-73
2022/06/11 03:57:49;;;;;;;1.45;0.70;;;21.00;66.10;;;;;;4432660;32;20075;-73
2022/06/11 04:01:14;;;;;;;2.15;1.02;;;21.00;66.10;;;;;;4432283;32;20508;-72
2022/06/11 04:03:05;;;;;;;3.13;0.68;;;21.00;66.10;;;;;;4431788;32;20122;-69
2022/06/11 04:05:31;;;;;;;1.58;0.60;;;21.00;66.20;;;;;;4432219;32;20078;-72
2022/06/11 04:07:58;;;;;;;2.45;0.77;;;21.00;66.20;;;;;;4432213;32;20079;-68
2022/06/11 04:10:24;;;;;;;2.25;0.65;;;21.00;66.10;;;;;;4432051;32;20566;-68
2022/06/11 04:12:49;;;;;;;1.00;0.47;;;21.00;66.10;;;;;;4432486;32;20216;-71
2022/06/11 04:15:15;;;;;;;0.98;0.57;;;21.00;66.10;;;;;;4432057;32;20201;-69
2022/06/11 04:17:41;;;;;;;1.80;0.80;;;21.00;66.10;;;;;;4432176;32;20089;-70
2022/06/11 04:20:07;;;;;;;1.50;0.60;;;21.00;66.20;;;;;;4432356;32;20079;-72
2022/06/11 04:22:33;;;;;;;2.17;0.70;;;21.00;66.20;;;;;;4432320;32;20122;-71
2022/06/11 04:24:59;;;;;;;1.50;0.80;;;21.00;66.20;;;;;;4432236;32;20085;-73
2022/06/11 04:27:25;;;;;;;2.55;0.68;;;21.00;66.20;;;;;;4405504;32;20086;-71
2022/06/11 04:29:54;;;;;;;2.20;0.95;;;21.00;66.10;;;;;;4418202;32;20148;-72
2022/06/11 04:32:22;;;;;;;2.47;0.70;;;21.00;66.10;;;;;;4432314;32;20396;-71
2022/06/11 04:34:49;;;;;;;2.35;0.60;;;21.00;66.10;;;;;;4431882;32;20096;-72
2022/06/11 04:37:18;;;;;;;1.33;0.65;;;21.00;66.10;;;;;;4431934;32;20156;-72
2022/06/11 04:39:46;;;;;;;1.73;0.70;;;21.00;66.10;;;;;;4432216;32;20089;-77
2022/06/11 04:42:14;;;;;;;0.82;0.60;;;21.00;66.10;;;;;;4432161;32;20236;-72
2022/06/11 04:44:42;;;;;;;1.98;0.80;;;21.00;66.10;;;;;;4432361;32;20109;-71
2022/06/11 04:47:10;;;;;;;1.00;0.55;;;21.00;66.10;;;;;;4431679;32;20086;-71
2022/06/11 04:49:37;;;;;;;2.30;0.70;;;21.00;66.10;;;;;;4431655;32;20074;-72
2022/06/11 04:52:03;;;;;;;1.27;0.70;;;21.00;66.10;;;;;;4432482;32;20087;-72
2022/06/11 04:54:30;;;;;;;5.78;0.77;;;21.00;66.10;;;;;;4431841;32;20088;-72
2022/06/11 04:56:56;;;;;;;1.27;0.60;;;21.00;66.10;;;;;;4431830;32;20066;-72
2022/06/11 04:59:23;;;;;;;1.67;0.77;;;21.00;66.10;;;;;;4431957;32;20216;-72
2022/06/11 05:01:48;;;;;;;1.88;0.63;;;20.90;66.10;;;;;;4431932;32;20094;-72
2022/06/11 05:04:15;;;;;;;1.70;0.70;;;21.00;66.10;;;;;;4431728;32;20605;-72
2022/06/11 05:06:43;;;;;;;3.20;0.70;;;20.90;66.10;;;;;;4431295;32;20093;-71
2022/06/11 05:09:12;;;;;;;1.10;0.70;;;21.00;66.10;;;;;;4431661;32;20078;-72
2022/06/11 05:11:38;;;;;;;1.48;0.40;;;21.00;66.10;;;;;;4431397;32;20101;-72
2022/06/11 05:14:04;;;;;;;1.63;0.80;;;21.00;66.10;;;;;;4417820;32;20125;-72
2022/06/11 05:16:30;;;;;;;0.70;0.57;;;21.00;66.10;;;;;;4431552;32;20078;-72
2022/06/11 05:18:57;;;;;;;2.00;0.77;;;20.90;66.10;;;;;;4431331;32;20547;-72
2022/06/11 05:21:23;;;;;;;1.67;0.70;;;21.00;66.10;;;;;;4431131;32;20420;-72
2022/06/11 05:23:49;;;;;;;1.73;0.80;;;21.00;66.10;;;;;;4431158;32;20101;-72
2022/06/11 05:26:20;;;;;;;1.63;0.70;;;21.00;66.10;;;;;;4431651;32;20098;-72
2022/06/11 05:28:45;;;;;;;2.10;0.90;;;21.00;66.10;;;;;;4431130;32;20173;-73
2022/06/11 05:31:12;;;;;;;2.08;0.77;;;21.00;66.10;;;;;;4431325;32;20086;-72
2022/06/11 05:33:38;;;;;;;2.63;0.82;;;21.00;66.00;;;;;;4431245;32;20082;-72
2022/06/11 05:36:05;;;;;;;1.65;0.80;;;21.00;66.10;;;;;;4431282;32;20110;-72
2022/06/11 05:38:31;;;;;;;1.73;0.63;;;21.00;66.10;;;;;;4431235;32;20531;-72
2022/06/11 05:40:58;;;;;;;1.02;0.60;;;21.10;66.10;;;;;;4430862;32;20082;-72
2022/06/11 05:43:25;;;;;;;2.47;0.70;;;21.00;66.00;;;;;;4431195;32;20110;-72
2022/06/11 05:45:58;;;;;;;2.13;0.70;;;21.10;66.10;;;;;;4431396;32;20091;-72
2022/06/11 05:48:29;;;;;;;1.23;0.70;;;21.10;66.00;;;;;;4431143;32;20113;-72
2022/06/11 05:50:57;;;;;;;1.00;0.50;;;21.10;66.10;;;;;;4431313;32;20520;-72
2022/06/11 05:53:27;;;;;;;2.00;0.85;;;21.10;66.00;;;;;;4431019;32;20124;-75
2022/06/11 05:55:57;;;;;;;2.03;0.80;;;21.10;65.90;;;;;;4431093;32;20463;-72
2022/06/11 05:58:27;;;;;;;1.52;0.60;;;21.10;65.90;;;;;;4430744;32;20299;-72
2022/06/11 06:00:55;;;;;;;0.88;0.63;;;21.20;65.90;;;;;;4416792;32;20103;-72
2022/06/11 06:03:21;;;;;;;2.97;0.68;;;21.20;65.90;;;;;;4430933;32;20672;-72
2022/06/11 06:05:46;;;;;;;3.00;0.93;;;21.20;65.90;;;;;;4417042;32;20169;-74
2022/06/11 06:08:13;;;;;;;1.10;0.57;;;21.20;65.90;;;;;;4430756;32;20556;-72
2022/06/11 06:10:39;;;;;;;2.58;0.90;;;21.20;65.80;;;;;;4430760;32;20556;-72
2022/06/11 06:13:45;;;;;;;2.17;0.85;;;21.30;65.80;;;;;;4430710;32;20074;-72
2022/06/11 06:15:52;;;;;;;1.10;0.70;;;21.30;65.80;;;;;;4430372;32;20089;-72
2022/06/11 06:18:19;;;;;;;1.45;0.70;;;21.30;65.80;;;;;;4415796;32;20172;-72
2022/06/11 06:20:47;;;;;;;2.33;0.90;;;21.30;65.80;;;;;;4430714;32;20100;-72
2022/06/11 06:23:13;;;;;;;2.35;0.88;;;21.30;65.80;;;;;;4430379;32;20508;-73
2022/06/11 06:25:38;;;;;;;1.73;0.68;;;21.30;65.80;;;;;;4430780;32;20204;-72
2022/06/11 06:28:05;;;;;;;2.42;0.75;;;21.40;65.90;;;;;;4430452;32;20412;-71
2022/06/11 06:30:31;;;;;;;2.65;0.80;;;21.40;65.80;;;;;;4430331;32;20523;-71
2022/06/11 06:32:57;;;;;;;2.75;0.90;;;21.40;65.80;;;;;;4430629;32;20082;-70
2022/06/11 06:35:22;;;;;;;2.75;1.00;;;21.50;65.70;;;;;;4416564;32;20224;-71
2022/06/11 06:37:48;;;;;;;3.63;1.20;;;21.50;65.70;;;;;;4430531;32;20054;-71
2022/06/11 06:40:14;;;;;;;3.15;1.00;;;21.50;65.70;;;;;;4430419;32;20118;-70
2022/06/11 06:42:40;;;;;;;5.40;1.38;;;21.60;65.70;;;;;;4416054;32;20515;-69
2022/06/11 06:45:06;;;;;;;5.10;1.90;;;21.60;65.70;;;;;;4430162;32;20071;-69
2022/06/11 06:47:32;;;;;;;4.55;1.45;;;21.70;65.70;;;;;;4430391;32;20130;-69
2022/06/11 06:49:58;;;;;;;5.28;1.55;;;21.70;65.60;;;;;;4430121;32;20216;-69
2022/06/11 06:52:23;;;;;;;5.10;1.83;;;21.70;65.60;;;;;;4430086;32;20106;-70
2022/06/11 06:54:50;;;;;;;5.18;1.60;;;21.80;65.70;;;;;;4430304;32;20396;-69
2022/06/11 06:57:16;;;;;;;6.30;1.75;;;21.80;65.60;;;;;;4430001;32;20086;-70
2022/06/11 06:59:43;;;;;;;8.30;2.67;;;21.80;65.60;;;;;;4430227;32;20155;-68
2022/06/11 07:02:10;;;;;;;7.63;2.33;;;21.90;65.70;;;;;;4429813;32;20074;-70
2022/06/11 07:04:37;;;;;;;5.97;1.92;;;22.00;65.80;;;;;;4429918;32;20083;-70
2022/06/11 07:07:04;;;;;;;5.78;1.75;;;22.00;65.70;;;;;;4430006;32;20067;-69
2022/06/11 07:09:30;;;;;;;9.18;2.17;;;22.00;65.60;;;;;;4430049;32;20082;-70
2022/06/11 07:11:55;;;;;;;7.90;2.05;;;22.10;65.60;;;;;;4430057;32;20452;-70
2022/06/11 07:14:22;;;;;;;10.48;2.72;;;22.10;65.40;;;;;;4429774;32;20071;-70
2022/06/11 07:16:52;;;;;;;8.52;2.30;;;22.10;65.30;;;;;;4429776;32;20137;-72
2022/06/11 07:19:32;;;;;;;10.25;2.42;;;22.10;65.10;;;;;;4430125;32;20272;-70
2022/06/11 07:22:03;;;;;;;9.95;2.53;;;22.20;65.10;;;;;;4429499;32;20602;-70
2022/06/11 07:24:32;;;;;;;11.95;2.80;;;22.20;65.00;;;;;;4429856;32;20070;-72
2022/06/11 07:27:03;;;;;;;9.65;2.65;;;22.20;64.90;;;;;;4429435;32;20165;-70
2022/06/11 07:29:34;;;;;;;14.48;3.78;;;22.30;64.90;;;;;;4429276;32;20094;-70
2022/06/11 07:32:04;;;;;;;9.15;2.63;;;22.30;64.90;;;;;;4429943;32;20152;-70
2022/06/11 07:34:30;;;;;;;10.13;2.78;;;22.30;64.80;;;;;;4429818;32;20205;-69
2022/06/11 07:36:58;;;;;;;8.93;2.70;;;22.30;64.80;;;;;;4429546;32;20079;-70
2022/06/11 07:39:24;;;;;;;13.27;3.40;;;22.30;64.70;;;;;;4429807;32;20094;-70
2022/06/11 07:41:50;;;;;;;10.30;2.92;;;22.30;64.70;;;;;;4429238;32;20535;-70
2022/06/11 07:44:16;;;;;;;14.18;3.38;;;22.40;64.80;;;;;;4429611;32;20074;-69
2022/06/11 07:46:41;;;;;;;14.75;3.05;;;22.40;64.90;;;;;;4429603;32;20078;-70
2022/06/11 07:49:07;;;;;;;14.60;3.38;;;22.50;64.90;;;;;;4429799;32;20099;-70
2022/06/11 07:51:33;;;;;;;14.15;3.00;;;22.50;64.90;;;;;;4429319;32;20374;-70
2022/06/11 07:53:59;;;;;;;15.05;3.42;;;22.50;64.90;;;;;;4429462;32;20381;-70
2022/06/11 07:56:25;;;;;;;9.98;2.97;;;22.60;64.80;;;;;;4429234;32;20121;-69
2022/06/11 07:58:54;;;;;;;13.18;3.55;;;22.60;64.60;;;;;;4429441;32;20141;-71
2022/06/11 08:01:20;;;;;;;15.10;3.55;;;22.60;64.50;;;;;;4403065;32;20140;-70
2022/06/11 08:03:49;;;;;;;17.55;3.95;;;22.70;64.20;;;;;;4429357;32;20169;-69
2022/06/11 08:06:16;;;;;;;16.25;3.63;;;22.70;63.70;;;;;;4429368;32;20212;-69
2022/06/11 08:08:42;;;;;;;15.65;4.00;;;22.80;63.50;;;;;;4429125;32;20086;-72
2022/06/11 08:11:08;;;;;;;14.77;3.33;;;22.70;63.30;;;;;;4429305;32;20082;-71
2022/06/11 08:13:35;;;;;;;11.98;3.40;;;22.70;63.20;;;;;;4429355;32;20176;-69
2022/06/11 08:16:01;;;;;;;18.08;3.67;;;22.80;63.10;;;;;;4429595;32;20078;-70
2022/06/11 08:18:29;;;;;;;16.88;4.32;;;22.80;63.10;;;;;;4429234;32;20085;-69
2022/06/11 08:20:56;;;;;;;15.27;3.78;;;22.80;63.30;;;;;;4428954;32;20089;-69
2022/06/11 08:23:23;;;;;;;13.85;3.15;;;22.80;63.50;;;;;;4429132;32;20185;-70
2022/06/11 08:25:49;;;;;;;13.02;3.08;;;22.80;63.50;;;;;;4429005;32;20137;-73
2022/06/11 08:28:17;;;;;;;11.32;3.00;;;22.80;63.50;;;;;;4429767;32;20532;-69
2022/06/11 08:30:44;;;;;;;12.07;3.15;;;22.70;63.50;;;;;;4415396;32;20133;-70
2022/06/11 08:33:10;;;;;;;12.02;2.97;;;22.70;63.60;;;;;;4428951;32;20424;-69
2022/06/11 08:35:36;;;;;;;9.00;2.92;;;22.70;63.70;;;;;;4428917;32;20082;-69
2022/06/11 08:38:04;;;;;;;13.23;2.95;;;22.70;63.80;;;;;;4428886;32;20212;-70
2022/06/11 08:40:53;;;;;;;14.65;3.42;;;22.70;63.80;;;;;;4429519;32;20145;-69
2022/06/11 08:43:36;;;;;;;12.93;3.03;;;22.70;63.80;;;;;;4432403;32;20066;-69
2022/06/11 08:46:09;;;;;;;16.15;3.38;;;22.70;64.80;;;;;;4432252;32;20291;-70
2022/06/11 08:48:47;;;;;;;11.50;3.40;;;22.60;63.90;;;;;;4432233;32;20251;-70
2022/06/11 08:51:18;;;;;;;10.40;3.13;;;22.60;64.00;;;;;;4431840;32;20212;-69
2022/06/11 08:53:46;;;;;;;12.40;2.65;;;22.60;64.10;;;;;;4431563;32;20120;-69
2022/06/11 08:56:19;;;;;;;14.25;3.33;;;22.60;64.20;;;;;;4417991;32;20086;-70
2022/06/11 08:59:00;;;;;;;13.75;3.40;;;22.60;64.10;;;;;;4431954;32;20084;-69
2022/06/11 09:01:45;;;;;;;10.45;2.78;;;22.60;64.20;;;;;;4431352;32;20093;-69
2022/06/11 09:04:29;;;;;;;13.35;3.42;;;22.60;64.30;;;;;;4431708;32;20074;-69
2022/06/11 09:07:08;;;;;;;9.80;3.00;;;22.60;64.40;;;;;;4431740;32;20093;-70
2022/06/11 09:09:44;;;;;;;11.38;2.83;;;22.60;64.50;;;;;;4431665;32;20114;-69
2022/06/11 09:12:10;;;;;;;7.65;2.47;;;22.60;64.40;;;;;;4431709;32;20412;-69
2022/06/11 09:14:45;;;;;;;10.55;3.03;;;22.60;64.40;;;;;;4431533;32;20070;-69
2022/06/11 09:17:27;;;;;;;8.50;2.90;;;22.60;64.50;;;;;;4431545;32;20096;-69
2022/06/11 09:20:13;;;;;;;12.02;3.05;;;22.60;64.40;;;;;;4431610;32;20082;-70
2022/06/11 09:22:49;;;;;;;9.40;3.08;;;22.60;64.40;;;;;;4431343;32;20192;-70
2022/06/11 09:25:47;;;;;;;12.15;3.22;;;22.60;64.60;;;;;;4431474;32;20097;-70
2022/06/11 09:28:34;;;;;;;9.25;2.58;;;22.60;65.50;;;;;;4423008;32;20086;-70
2022/06/11 09:31:37;;;;;;;8.40;2.63;;;22.60;64.60;;;;;;4431594;32;20074;-70
2022/06/11 09:34:32;;;;;;;8.32;2.30;;;22.50;64.60;;;;;;4417877;32;20086;-70
2022/06/11 09:37:07;;;;;;;7.22;2.58;;;22.50;64.70;;;;;;4431082;32;20075;-70
2022/06/11 09:39:38;;;;;;;8.15;2.53;;;22.50;64.80;;;;;;4431221;32;20101;-70
2022/06/11 09:42:19;;;;;;;8.30;2.60;;;22.50;64.80;;;;;;4431019;32;20133;-70
2022/06/11 09:44:54;;;;;;;9.88;2.70;;;22.50;64.70;;;;;;4431218;32;20137;-70
2022/06/11 09:47:42;;;;;;;10.43;2.55;;;22.50;64.70;;;;;;4431216;32;20168;-69
2022/06/11 09:50:22;;;;;;;9.63;2.40;;;22.50;64.80;;;;;;4430900;32;20288;-70
2022/06/11 09:52:48;;;;;;;6.72;2.58;;;22.50;64.70;;;;;;4430939;32;20208;-70
2022/06/11 09:55:16;;;;;;;10.95;2.85;;;22.50;64.70;;;;;;4430729;32;20567;-70
2022/06/11 09:57:50;;;;;;;6.55;2.35;;;22.50;64.70;;;;;;4431003;32;20200;-69
2022/06/11 10:00:30;;;;;;;9.32;2.67;;;22.50;64.70;;;;;;4430914;32;20070;-69
2022/06/11 10:03:30;;;;;;;7.80;2.72;;;22.50;64.70;;;;;;4430805;32;20081;-69
2022/06/11 10:06:13;;;;;;;7.07;2.40;;;22.50;64.80;;;;;;4430649;32;20082;-69
2022/06/11 10:08:59;;;;;;;7.22;2.75;;;22.50;64.80;;;;;;4431088;32;20086;-69
2022/06/11 10:11:30;;;;;;;6.72;2.15;;;22.50;64.70;;;;;;4417555;32;20236;-69
2022/06/11 10:14:28;;;;;;;6.85;2.03;;;22.50;64.80;;;;;;4431246;32;20089;-70
2022/06/11 10:17:13;;;;;;;9.98;2.60;;;22.50;64.80;;;;;;4430942;32;20082;-69
2022/06/11 10:19:54;;;;;;;7.85;2.30;;;22.50;64.80;;;;;;4419933;32;20078;-69
2022/06/11 10:22:32;;;;;;;7.25;2.13;;;22.50;64.80;;;;;;4431128;32;20106;-69
2022/06/11 10:25:23;;;;;;;7.88;2.28;;;22.50;64.80;;;;;;4430274;32;20114;-69
2022/06/11 10:28:06;;;;;;;7.60;2.58;;;22.50;64.70;;;;;;4430587;32;20216;-69
2022/06/11 10:30:53;;;;;;;9.20;2.33;;;22.50;64.70;;;;;;4430523;32;20145;-69
2022/06/11 10:33:33;;;;;;;6.80;1.98;;;22.50;64.80;;;;;;4430746;32;20475;-70
2022/06/11 10:36:08;;;;;;;8.57;2.47;;;22.50;64.70;;;;;;4430447;32;20086;-71
2022/06/11 10:38:47;;;;;;;6.63;2.10;;;22.50;64.70;;;;;;4430652;32;20156;-70
2022/06/11 10:41:32;;;;;;;6.72;2.30;;;22.50;64.70;;;;;;4430098;32;20082;-70
2022/06/11 10:44:05;;;;;;;7.28;2.10;;;22.50;64.60;;;;;;4416351;32;20160;-70
2022/06/11 10:46:35;;;;;;;5.17;2.13;;;22.50;64.70;;;;;;4416294;32;20070;-71
2022/06/11 10:49:01;;;;;;;6.90;2.30;;;22.50;64.70;;;;;;4430431;32;20220;-71
2022/06/11 10:51:33;;;;;;;7.70;2.33;;;22.50;64.70;;;;;;4429871;32;20526;-71
2022/06/11 10:54:26;;;;;;;6.80;2.20;;;22.50;64.70;;;;;;4430170;32;20160;-70
2022/06/11 10:56:59;;;;;;;8.30;2.20;;;22.50;64.60;;;;;;4427675;32;20204;-71
2022/06/11 10:59:47;;;;;;;6.72;2.15;;;22.50;64.60;;;;;;4430304;32;20653;-70
2022/06/11 11:02:33;;;;;;;8.90;2.45;;;22.50;64.70;;;;;;4430004;32;20148;-70
2022/06/11 11:05:04;;;;;;;8.45;2.35;;;22.50;64.60;;;;;;4419145;32;20105;-72
2022/06/11 11:07:54;;;;;;;6.03;1.77;;;22.50;64.50;;;;;;4430026;32;20292;-72
2022/06/11 11:10:35;;;;;;;9.57;2.45;;;22.50;64.10;;;;;;4430067;32;20086;-72
2022/06/11 11:13:06;;;;;;;9.10;2.33;;;22.60;63.10;;;;;;4416053;32;20087;-72
2022/06/11 11:15:46;;;;;;;10.20;2.60;;;22.70;62.70;;;;;;4429661;32;20070;-71
2022/06/11 11:18:22;;;;;;;7.57;2.55;;;22.80;62.00;;;;;;4429925;32;20408;-72
2022/06/11 11:20:56;;;;;;;9.27;2.55;;;22.90;61.80;;;;;;4429770;32;20077;-73
2022/06/11 11:23:40;;;;;;;10.52;2.65;;;22.90;61.20;;;;;;4429534;32;20129;-71
2022/06/11 11:26:18;;;;;;;9.25;2.00;;;23.00;60.60;;;;;;4429827;32;20062;-72
2022/06/11 11:28:55;;;;;;;14.40;2.47;;;23.00;60.40;;;;;;4415826;32;20132;-71
2022/06/11 11:31:26;;;;;;;10.68;2.45;;;23.00;60.20;;;;;;4429728;32;20081;-76
2022/06/11 11:34:09;;;;;;;10.52;2.40;;;23.00;60.10;;;;;;4430026;32;20102;-70
2022/06/11 11:36:35;;;;;;;9.38;2.30;;;23.10;59.70;;;;;;4416023;32;20102;-69
2022/06/11 11:39:17;;;;;;;12.73;2.47;;;23.10;59.70;;;;;;4429758;32;20500;-72
2022/06/11 11:41:59;;;;;;;8.93;2.53;;;23.10;59.10;;;;;;4429667;32;20070;-71
2022/06/11 11:44:25;;;;;;;10.70;2.65;;;23.10;59.10;;;;;;4415951;32;20122;-71
2022/06/11 11:46:59;;;;;;;8.68;2.55;;;23.20;59.10;;;;;;4429863;32;20106;-72
2022/06/11 11:49:29;;;;;;;12.18;2.30;;;23.20;59.00;;;;;;4429912;32;20251;-73
2022/06/11 11:52:04;;;;;;;7.47;2.40;;;23.20;58.80;;;;;;4429605;32;20576;-75
2022/06/11 11:54:31;;;;;;;11.18;2.58;;;23.20;58.40;;;;;;4416023;32;20074;-72
2022/06/11 11:57:01;;;;;;;6.95;1.75;;;23.20;59.40;;;;;;4428223;32;20517;-71
2022/06/11 11:59:42;;;;;;;9.90;2.28;;;23.20;58.20;;;;;;4429067;32;20089;-71
2022/06/11 12:02:18;;;;;;;9.07;2.35;;;23.30;57.90;;;;;;4429333;32;20082;-71
2022/06/11 12:04:54;;;;;;;8.27;2.13;;;23.30;57.50;;;;;;4429691;32;20067;-71
2022/06/11 12:07:38;;;;;;;13.20;2.83;;;23.30;57.40;;;;;;4415983;32;20181;-73
2022/06/11 12:10:11;;;;;;;12.25;2.70;;;23.30;57.10;;;;;;4429488;32;20094;-72
2022/06/11 12:12:37;;;;;;;9.83;2.83;;;23.30;57.20;;;;;;4429230;32;20130;-72
2022/06/11 12:15:28;;;;;;;7.15;2.22;;;23.30;57.20;;;;;;4429369;32;20152;-72
2022/06/11 12:18:07;;;;;;;6.28;1.80;;;23.30;56.90;;;;;;4432527;32;20071;-72
2022/06/11 12:20:39;;;;;;;5.75;1.90;;;23.30;56.90;;;;;;4432316;32;20063;-72
2022/06/11 12:23:39;;;;;;;7.07;1.88;;;23.30;56.80;;;;;;4432272;32;20228;-71
2022/06/11 12:26:28;;;;;;;7.15;1.95;;;23.30;56.60;;;;;;4407042;32;20165;-71
2022/06/11 12:29:14;;;;;;;8.02;2.22;;;23.40;56.40;;;;;;4417558;32;20164;-72
2022/06/11 12:31:40;;;;;;;9.30;2.10;;;23.40;55.70;;;;;;4416611;32;20071;-72
2022/06/11 12:34:16;;;;;;;7.65;2.17;;;23.40;57.00;;;;;;4416789;32;20411;-71
2022/06/11 12:37:06;;;;;;;9.07;1.90;;;23.40;55.70;;;;;;4416809;32;20098;-71
2022/06/11 12:39:51;;;;;;;9.00;2.10;;;23.40;55.40;;;;;;4415766;32;20094;-72
2022/06/11 12:42:36;;;;;;;6.03;1.80;;;23.50;55.60;;;;;;4416640;32;20085;-71
2022/06/11 12:45:21;;;;;;;9.57;2.13;;;23.50;55.60;;;;;;4416703;32;20089;-72
2022/06/11 12:48:00;;;;;;;8.68;1.50;;;23.50;55.90;;;;;;4416512;32;20122;-71
2022/06/11 12:51:00;;;;;;;9.70;2.20;;;23.50;55.70;;;;;;4416365;32;20087;-72
2022/06/11 12:53:41;;;;;;;8.57;2.22;;;23.50;55.40;;;;;;4376333;32;20075;-72
2022/06/11 12:56:25;;;;;;;5.40;1.55;;;23.50;55.70;;;;;;4416596;32;20142;-72
2022/06/11 12:59:12;;;;;;;6.68;1.63;;;23.50;55.60;;;;;;4416496;32;20201;-72
2022/06/11 13:01:37;;;;;;;6.53;1.90;;;23.60;55.30;;;;;;4415907;32;20226;-72
2022/06/11 13:04:24;;;;;;;9.32;2.15;;;23.50;55.40;;;;;;4415255;32;20115;-72
2022/06/11 13:07:03;;;;;;;9.63;1.90;;;23.60;55.30;;;;;;4416525;32;20078;-71
2022/06/11 13:10:04;;;;;;;8.57;1.92;;;23.60;55.40;;;;;;4416401;32;20188;-72
2022/06/11 13:12:45;;;;;;;8.48;2.03;;;23.60;55.00;;;;;;4416762;32;20172;-71
2022/06/11 13:15:19;;;;;;;5.00;1.45;;;23.60;55.00;;;;;;4414725;32;20090;-70
2022/06/11 13:18:13;;;;;;;8.85;1.85;;;23.60;54.90;;;;;;4416150;32;20123;-72